createdAt,value
2022-12-29T00:01:58.610Z,9.17
2022-12-29T00:05:02.227Z,10.57
2022-12-29T00:08:06.324Z,11.27
2022-12-29T00:11:13.369Z,10.90
2022-12-29T00:14:34.506Z,10.93
2022-12-29T00:17:38.240Z,13.23
2022-12-29T00:20:59.114Z,10.43
2022-12-29T00:24:34.772Z,18.13
2022-12-29T00:27:59.233Z,11.27
2022-12-29T00:31:42.022Z,26.60
2022-12-29T00:35:03.149Z,11.40
2022-12-29T00:38:27.615Z,9.30
2022-12-29T00:41:49.256Z,9.87
2022-12-29T00:44:54.350Z,9.50
2022-12-29T00:47:57.832Z,11.40
2022-12-29T00:51:00.372Z,10.53
2022-12-29T00:54:03.970Z,10.27
2022-12-29T00:57:09.734Z,10.10
2022-12-29T01:00:16.169Z,9.40
2022-12-29T01:03:20.629Z,10.87
2022-12-29T01:06:25.085Z,10.07
2022-12-29T01:09:46.023Z,9.83
2022-12-29T01:12:50.993Z,10.77
2022-12-29T01:15:56.838Z,11.20
2022-12-29T01:19:00.878Z,12.33
2022-12-29T01:22:04.976Z,11.80
2022-12-29T01:25:09.668Z,11.83
2022-12-29T01:28:16.508Z,13.07
2022-12-29T01:31:24.845Z,12.57
2022-12-29T01:34:30.514Z,12.57
2022-12-29T01:37:34.020Z,12.13
2022-12-29T01:40:46.037Z,12.43
2022-12-29T01:43:51.839Z,12.20
2022-12-29T01:46:59.226Z,11.33
2022-12-29T01:50:09.456Z,12.50
2022-12-29T01:53:18.419Z,11.30
2022-12-29T01:56:23.650Z,12.27
2022-12-29T01:59:32.414Z,11.17
2022-12-29T02:02:37.906Z,11.17
2022-12-29T02:05:47.185Z,11.37
2022-12-29T02:08:53.578Z,11.40
2022-12-29T02:12:00.817Z,11.20
2022-12-29T02:15:05.995Z,10.53
2022-12-29T02:18:24.653Z,11.10
2022-12-29T02:21:45.920Z,11.83
2022-12-29T02:25:12.589Z,11.00
2022-12-29T02:28:46.047Z,10.70
2022-12-29T02:31:56.783Z,11.00
2022-12-29T02:35:09.396Z,12.60
2022-12-29T02:38:23.620Z,11.30
2022-12-29T02:41:34.271Z,10.93
2022-12-29T02:44:49.442Z,11.63
2022-12-29T02:47:59.229Z,11.33
2022-12-29T02:51:05.884Z,11.67
2022-12-29T02:54:27.144Z,11.57
2022-12-29T02:57:33.193Z,11.90
2022-12-29T03:00:48.584Z,11.97
2022-12-29T03:04:13.290Z,12.07
2022-12-29T03:07:25.460Z,12.63
2022-12-29T03:10:37.879Z,12.73
2022-12-29T03:14:04.984Z,13.00
2022-12-29T03:17:17.502Z,13.10
2022-12-29T03:20:27.760Z,13.80
2022-12-29T03:23:35.245Z,13.97
2022-12-29T03:26:39.735Z,16.83
2022-12-29T03:29:48.420Z,16.63
2022-12-29T03:32:54.941Z,18.10
2022-12-29T03:36:07.195Z,18.47
2022-12-29T03:39:13.404Z,19.07
2022-12-29T03:42:22.360Z,18.33
2022-12-29T03:45:26.246Z,19.20
2022-12-29T03:48:30.039Z,19.40
2022-12-29T03:51:35.523Z,19.87
2022-12-29T03:54:42.200Z,19.90
2022-12-29T03:57:46.065Z,18.63
2022-12-29T04:00:54.712Z,18.60
2022-12-29T04:03:58.546Z,19.23
2022-12-29T04:07:04.421Z,19.17
2022-12-29T04:10:09.377Z,19.40
2022-12-29T04:13:13.606Z,19.07
2022-12-29T04:16:18.130Z,19.20
2022-12-29T04:19:22.290Z,18.80
2022-12-29T04:22:28.589Z,18.17
2022-12-29T04:25:33.751Z,17.77
2022-12-29T04:28:39.238Z,17.87
2022-12-29T04:31:54.201Z,17.37
2022-12-29T04:34:58.028Z,17.27
2022-12-29T04:38:03.463Z,17.10
2022-12-29T04:41:07.514Z,16.87
2022-12-29T04:44:13.254Z,18.23
2022-12-29T04:47:40.241Z,18.13
2022-12-29T04:51:18.737Z,17.93
2022-12-29T04:54:24.326Z,18.23
2022-12-29T04:57:36.332Z,17.77
2022-12-29T05:00:39.902Z,19.07
2022-12-29T05:03:43.856Z,19.27
2022-12-29T05:06:48.062Z,19.27
2022-12-29T05:09:53.224Z,19.80
2022-12-29T05:12:56.751Z,19.97
2022-12-29T05:16:00.550Z,20.20
2022-12-29T05:19:05.095Z,20.87
2022-12-29T05:22:09.912Z,19.67
2022-12-29T05:25:16.690Z,19.70
2022-12-29T05:28:31.416Z,20.30
2022-12-29T05:31:40.952Z,20.20
2022-12-29T05:34:44.690Z,22.03
2022-12-29T05:37:48.437Z,21.13
2022-12-29T05:40:53.737Z,19.97
2022-12-29T05:44:17.772Z,20.73
2022-12-29T05:47:21.956Z,22.70
2022-12-29T05:50:49.142Z,21.87
2022-12-29T05:53:55.075Z,21.63
2022-12-29T05:57:01.226Z,25.63
2022-12-29T06:00:06.525Z,25.70
2022-12-29T06:03:18.060Z,24.83
2022-12-29T06:06:22.014Z,25.60
2022-12-29T06:09:26.433Z,23.43
2022-12-29T06:12:32.617Z,24.70
2022-12-29T06:15:37.425Z,24.97
2022-12-29T06:18:45.520Z,24.43
2022-12-29T06:21:50.164Z,24.67
2022-12-29T06:24:54.062Z,26.60
2022-12-29T06:27:59.474Z,28.70
2022-12-29T06:31:04.061Z,28.07
2022-12-29T06:34:08.647Z,27.00
2022-12-29T06:37:14.363Z,27.63
2022-12-29T06:40:18.191Z,25.53
2022-12-29T06:43:52.480Z,26.00
2022-12-29T06:47:26.895Z,29.23
2022-12-29T06:50:30.650Z,34.60
2022-12-29T06:53:34.413Z,36.80
2022-12-29T06:56:38.322Z,35.80
2022-12-29T06:59:43.492Z,35.23
2022-12-29T07:02:47.685Z,39.43
2022-12-29T07:05:51.534Z,33.17
2022-12-29T07:08:56.426Z,27.83
2022-12-29T07:12:01.217Z,26.03
2022-12-29T07:15:07.091Z,25.47
2022-12-29T07:18:10.940Z,24.53
2022-12-29T07:21:14.748Z,25.60
2022-12-29T07:24:18.464Z,26.83
2022-12-29T07:27:22.361Z,26.87
2022-12-29T07:30:27.682Z,26.23
2022-12-29T07:33:31.787Z,25.60
2022-12-29T07:36:35.555Z,24.00
2022-12-29T07:39:39.599Z,23.27
2022-12-29T07:42:43.508Z,22.63
2022-12-29T07:45:48.882Z,22.03
2022-12-29T07:48:54.626Z,21.33
2022-12-29T07:51:58.428Z,22.17
2022-12-29T07:55:02.241Z,20.43
2022-12-29T07:58:06.087Z,19.87
2022-12-29T08:01:11.402Z,20.20
2022-12-29T08:04:15.231Z,19.23
2022-12-29T08:07:19.050Z,20.00
2022-12-29T08:10:22.793Z,20.13
2022-12-29T08:13:27.821Z,21.60
2022-12-29T08:16:33.710Z,21.33
2022-12-29T08:19:37.443Z,22.50
2022-12-29T08:22:41.146Z,21.30
2022-12-29T08:25:44.842Z,26.17
2022-12-29T08:28:48.724Z,22.60
2022-12-29T08:31:53.818Z,24.13
2022-12-29T08:34:57.961Z,27.93
2022-12-29T08:38:01.778Z,23.73
2022-12-29T08:41:05.835Z,24.60
2022-12-29T08:44:09.602Z,24.17
2022-12-29T08:47:14.890Z,23.93
2022-12-29T08:50:18.899Z,27.83
2022-12-29T08:53:22.743Z,24.83
2022-12-29T08:56:26.716Z,25.53
2022-12-29T08:59:33.512Z,25.83
2022-12-29T09:02:38.960Z,25.33
2022-12-29T09:05:42.857Z,23.80
2022-12-29T09:08:46.891Z,25.37
2022-12-29T09:11:50.601Z,22.70
2022-12-29T09:14:54.358Z,21.90
2022-12-29T09:17:59.611Z,20.33
2022-12-29T09:21:07.841Z,20.97
2022-12-29T09:24:11.501Z,21.17
2022-12-29T09:27:15.330Z,21.57
2022-12-29T09:30:19.211Z,21.03
2022-12-29T09:33:24.506Z,19.77
2022-12-29T09:36:28.300Z,19.03
2022-12-29T09:39:32.092Z,18.70
2022-12-29T09:42:41.525Z,17.67
2022-12-29T09:45:48.114Z,18.97
2022-12-29T09:49:00.251Z,19.90
2022-12-29T09:52:08.971Z,18.77
2022-12-29T09:55:17.071Z,16.73
2022-12-29T09:58:27.615Z,15.47
2022-12-29T10:01:35.336Z,16.10
2022-12-29T10:04:47.054Z,17.27
2022-12-29T10:07:59.883Z,19.60
2022-12-29T10:11:14.671Z,18.33
2022-12-29T10:14:35.571Z,18.40
2022-12-29T10:17:47.231Z,16.67
2022-12-29T10:20:57.512Z,17.97
2022-12-29T10:24:03.778Z,18.43
2022-12-29T10:27:13.230Z,19.23
2022-12-29T10:30:18.490Z,20.03
2022-12-29T10:33:26.654Z,20.77
2022-12-29T10:36:37.235Z,20.83
2022-12-29T10:39:47.780Z,18.70
2022-12-29T10:42:55.847Z,20.67
2022-12-29T10:46:04.794Z,19.00
2022-12-29T10:49:21.656Z,19.97
2022-12-29T10:52:29.309Z,19.23
2022-12-29T10:55:37.648Z,17.77
2022-12-29T10:58:49.320Z,17.53
2022-12-29T11:02:02.977Z,16.27
2022-12-29T11:05:17.402Z,14.30
2022-12-29T11:08:25.808Z,15.07
2022-12-29T11:11:36.155Z,16.03
2022-12-29T11:14:41.931Z,16.37
2022-12-29T11:17:47.347Z,14.97
2022-12-29T11:20:51.687Z,14.63
2022-12-29T11:24:00.651Z,15.07
2022-12-29T11:27:16.970Z,14.83
2022-12-29T11:30:26.813Z,14.90
2022-12-29T11:33:30.857Z,16.77
2022-12-29T11:36:37.440Z,17.30
2022-12-29T11:39:47.967Z,16.13
2022-12-29T11:42:55.001Z,17.50
2022-12-29T11:45:59.031Z,16.97
2022-12-29T11:49:05.391Z,16.40
2022-12-29T11:52:10.618Z,17.63
2022-12-29T11:55:24.316Z,18.30
2022-12-29T11:58:33.779Z,17.93
2022-12-29T12:01:41.457Z,18.00
2022-12-29T12:04:45.424Z,18.80
2022-12-29T12:07:52.213Z,18.37
2022-12-29T12:11:06.691Z,19.87
2022-12-29T12:14:22.499Z,20.43
2022-12-29T12:17:55.323Z,20.30
2022-12-29T12:21:06.804Z,20.50
2022-12-29T12:24:37.360Z,20.60
2022-12-29T12:27:51.271Z,20.17
2022-12-29T12:31:00.575Z,21.33
2022-12-29T12:34:09.358Z,20.63
2022-12-29T12:37:37.897Z,21.73
2022-12-29T12:41:02.066Z,21.03
2022-12-29T12:44:20.997Z,19.67
2022-12-29T12:47:47.660Z,20.77
2022-12-29T12:50:57.743Z,20.43
2022-12-29T12:54:14.626Z,19.67
2022-12-29T12:57:27.868Z,21.30
2022-12-29T13:00:40.522Z,21.57
2022-12-29T13:03:57.485Z,21.10
2022-12-29T13:07:11.804Z,20.93
2022-12-29T13:10:25.889Z,20.80
2022-12-29T13:13:47.801Z,22.00
2022-12-29T13:17:04.240Z,21.90
2022-12-29T13:20:22.423Z,21.57
2022-12-29T13:23:33.318Z,22.87
2022-12-29T13:26:44.256Z,23.30
2022-12-29T13:29:58.885Z,29.90
2022-12-29T13:33:21.074Z,30.53
2022-12-29T13:36:32.099Z,29.60
2022-12-29T13:39:39.771Z,26.90
2022-12-29T13:42:44.668Z,25.67
2022-12-29T13:45:52.656Z,26.93
2022-12-29T13:49:04.023Z,29.63
2022-12-29T13:52:17.867Z,30.57
2022-12-29T13:55:29.154Z,47.20
2022-12-29T13:58:37.581Z,28.77
2022-12-29T14:01:48.359Z,38.20
2022-12-29T14:05:02.463Z,25.00
2022-12-29T14:08:17.410Z,22.77
2022-12-29T14:11:25.958Z,31.43
2022-12-29T14:14:33.098Z,24.80
2022-12-29T14:17:37.479Z,32.63
2022-12-29T14:20:52.303Z,21.57
2022-12-29T14:23:56.308Z,21.90
2022-12-29T14:26:59.992Z,32.23
2022-12-29T14:30:03.786Z,30.77
2022-12-29T14:33:16.000Z,32.10
2022-12-29T14:36:29.241Z,29.10
2022-12-29T14:39:39.858Z,25.60
2022-12-29T14:42:44.642Z,36.17
2022-12-29T14:45:56.927Z,48.30
2022-12-29T14:49:02.395Z,33.87
2022-12-29T14:52:18.324Z,27.10
2022-12-29T14:55:39.822Z,28.77
2022-12-29T14:58:50.277Z,38.70
2022-12-29T15:01:56.756Z,45.27
2022-12-29T15:05:03.522Z,46.80
2022-12-29T15:08:10.099Z,41.23
2022-12-29T15:11:16.910Z,32.33
2022-12-29T15:14:32.673Z,31.97
2022-12-29T15:17:38.183Z,28.07
2022-12-29T15:20:41.889Z,26.20
2022-12-29T15:23:49.247Z,27.17
2022-12-29T15:26:55.941Z,28.27
2022-12-29T15:30:03.100Z,26.40
2022-12-29T15:33:20.948Z,96.47
2022-12-29T15:36:26.283Z,117.77
2022-12-29T15:39:33.542Z,63.50
2022-12-29T15:42:55.300Z,64.67
2022-12-29T15:45:59.257Z,64.07
2022-12-29T15:49:08.487Z,58.13
2022-12-29T15:52:13.059Z,62.90
2022-12-29T15:55:27.463Z,166.80
2022-12-29T15:58:33.010Z,117.70
2022-12-29T16:01:38.596Z,103.23
2022-12-29T16:05:09.017Z,99.70
2022-12-29T16:08:26.859Z,64.73
2022-12-29T16:11:36.729Z,46.80
2022-12-29T16:14:45.631Z,42.50
2022-12-29T16:17:51.971Z,43.30
2022-12-29T16:20:56.884Z,43.90
2022-12-29T16:24:04.353Z,48.47
2022-12-29T16:27:15.758Z,43.87
2022-12-29T16:30:27.945Z,39.63
2022-12-29T16:33:42.530Z,38.10
2022-12-29T16:36:56.489Z,48.97
2022-12-29T16:40:29.311Z,39.70
2022-12-29T16:43:35.987Z,40.23
2022-12-29T16:46:46.700Z,39.83
2022-12-29T16:49:54.868Z,45.90
2022-12-29T16:52:58.689Z,44.03
2022-12-29T16:56:06.470Z,43.17
2022-12-29T16:59:30.366Z,40.77
2022-12-29T17:02:46.348Z,39.83
2022-12-29T17:05:55.521Z,38.20
2022-12-29T17:09:01.216Z,40.47
2022-12-29T17:12:11.194Z,51.17
2022-12-29T17:15:25.018Z,42.27
2022-12-29T17:18:29.338Z,37.70
2022-12-29T17:21:33.146Z,38.27
2022-12-29T17:24:37.454Z,38.70
2022-12-29T17:27:45.703Z,69.63
2022-12-29T17:30:51.671Z,39.40
2022-12-29T17:33:57.061Z,47.50
2022-12-29T17:37:00.882Z,48.77
2022-12-29T17:40:06.586Z,50.30
2022-12-29T17:43:15.143Z,48.10
2022-12-29T17:46:20.707Z,48.50
2022-12-29T17:49:24.451Z,51.17
2022-12-29T17:52:28.378Z,56.63
2022-12-29T17:55:37.721Z,53.53
2022-12-29T17:58:43.883Z,52.47
2022-12-29T18:01:50.471Z,50.33
2022-12-29T18:04:55.061Z,48.97
2022-12-29T18:08:00.700Z,50.30
2022-12-29T18:11:05.303Z,50.97
2022-12-29T18:14:13.988Z,52.70
2022-12-29T18:17:19.185Z,52.83
2022-12-29T18:20:22.972Z,54.20
2022-12-29T18:23:28.131Z,53.07
2022-12-29T18:26:35.909Z,54.43
2022-12-29T18:29:40.732Z,55.50
2022-12-29T18:32:46.188Z,52.43
2022-12-29T18:35:54.715Z,55.17
2022-12-29T18:38:58.510Z,57.07
2022-12-29T18:42:02.402Z,63.97
2022-12-29T18:45:17.618Z,63.17
2022-12-29T18:48:23.105Z,73.90
2022-12-29T18:51:27.720Z,91.63
2022-12-29T18:54:33.253Z,94.87
2022-12-29T18:57:37.448Z,97.10
2022-12-29T19:00:41.804Z,86.50
2022-12-29T19:03:47.111Z,85.13
2022-12-29T19:06:51.559Z,63.67
2022-12-29T19:09:55.305Z,51.47
2022-12-29T19:12:59.052Z,58.33
2022-12-29T19:16:02.985Z,73.10
2022-12-29T19:19:09.633Z,75.53
2022-12-29T19:22:13.864Z,52.13
2022-12-29T19:25:17.636Z,51.47
2022-12-29T19:28:23.499Z,53.30
2022-12-29T19:31:27.404Z,49.07
2022-12-29T19:34:32.734Z,52.27
2022-12-29T19:37:40.234Z,74.33
2022-12-29T19:40:45.024Z,71.87
2022-12-29T19:43:48.787Z,84.27
2022-12-29T19:46:52.786Z,78.43
2022-12-29T19:49:58.133Z,69.93
2022-12-29T19:53:05.326Z,68.53
2022-12-29T19:56:10.619Z,67.10
2022-12-29T19:59:14.555Z,58.70
2022-12-29T20:02:21.442Z,62.10
2022-12-29T20:05:26.759Z,51.60
2022-12-29T20:08:30.576Z,47.87
2022-12-29T20:11:34.279Z,48.20
2022-12-29T20:14:38.357Z,47.50
2022-12-29T20:18:13.858Z,48.70
2022-12-29T20:21:09.930Z,50.70
2022-12-29T20:24:13.749Z,50.23
2022-12-29T20:27:17.576Z,41.23
2022-12-29T20:30:21.625Z,41.07
2022-12-29T20:33:25.425Z,35.37
2022-12-29T20:36:33.673Z,35.87
2022-12-29T20:39:38.180Z,37.83
2022-12-29T20:42:42.005Z,32.83
2022-12-29T20:45:46.249Z,129.60
2022-12-29T20:48:50.175Z,43.00
2022-12-29T20:52:10.920Z,40.33
2022-12-29T20:55:14.645Z,33.00
2022-12-29T20:58:26.001Z,66.00
2022-12-29T21:01:30.301Z,43.43
2022-12-29T21:04:57.672Z,32.30
2022-12-29T21:08:00.273Z,36.10
2022-12-29T21:11:04.144Z,29.13
2022-12-29T21:14:07.900Z,31.50
2022-12-29T21:17:11.691Z,71.90
2022-12-29T21:20:20.432Z,42.90
2022-12-29T21:23:25.879Z,29.43
2022-12-29T21:26:29.627Z,28.43
2022-12-29T21:29:33.498Z,27.20
2022-12-29T21:32:37.374Z,29.17
2022-12-29T21:35:41.187Z,47.53
2022-12-29T21:38:46.481Z,32.83
2022-12-29T21:41:50.190Z,24.47
2022-12-29T21:45:16.635Z,25.27
2022-12-29T21:48:25.232Z,27.40
2022-12-29T21:51:46.389Z,34.60
2022-12-29T21:55:05.289Z,36.27
2022-12-29T21:58:27.550Z,27.70
2022-12-29T22:01:51.407Z,27.77
2022-12-29T22:05:12.611Z,30.17
2022-12-29T22:08:33.648Z,28.23
2022-12-29T22:11:56.026Z,40.77
2022-12-29T22:14:59.794Z,29.23
2022-12-29T22:18:04.266Z,31.73
2022-12-29T22:21:09.335Z,28.33
2022-12-29T22:24:13.079Z,29.07
2022-12-29T22:27:18.159Z,29.23
2022-12-29T22:30:22.354Z,29.03
2022-12-29T22:33:26.097Z,28.90
2022-12-29T22:36:30.660Z,30.57
2022-12-29T22:39:34.376Z,29.23
2022-12-29T22:42:40.144Z,29.13
2022-12-29T22:45:43.860Z,28.33
2022-12-29T22:48:47.685Z,29.47
2022-12-29T22:51:52.157Z,28.53
2022-12-29T22:54:57.384Z,29.47
2022-12-29T22:58:05.462Z,30.23
2022-12-29T23:01:09.368Z,30.10
2022-12-29T23:04:59.176Z,31.30
2022-12-29T23:07:37.392Z,31.43
2022-12-29T23:10:41.157Z,31.37
2022-12-29T23:13:47.028Z,31.23
2022-12-29T23:16:50.950Z,31.20
2022-12-29T23:19:55.346Z,34.27
2022-12-29T23:22:59.065Z,33.43
2022-12-29T23:26:02.769Z,34.10
2022-12-29T23:29:09.945Z,33.27
2022-12-29T23:32:13.688Z,32.13
2022-12-29T23:35:17.631Z,29.60
2022-12-29T23:38:21.367Z,29.43
2022-12-29T23:41:25.233Z,29.07
2022-12-29T23:44:30.309Z,28.87
2022-12-29T23:47:33.998Z,27.37
2022-12-29T23:50:41.569Z,25.43
2022-12-29T23:53:46.615Z,25.13
2022-12-29T23:56:50.520Z,24.87
2022-12-29T23:59:55.591Z,23.80
